sensor_id;sensor_type;location;lat;lon;timestamp;pressure;altitude;pressure_sealevel;temperature;humidity
46534;BME280;32260;52.008;4.752;2023-05-08T00:01:38;102138.66;;;16.35;71.22
46534;BME280;32260;52.008;4.752;2023-05-08T00:04:04;102145.75;;;16.36;71.70
46534;BME280;32260;52.008;4.752;2023-05-08T00:06:30;102142.16;;;16.37;71.62
46534;BME280;32260;52.008;4.752;2023-05-08T00:08:56;102146.56;;;16.40;71.81
46534;BME280;32260;52.008;4.752;2023-05-08T00:11:22;102148.34;;;16.39;71.83
46534;BME280;32260;52.008;4.752;2023-05-08T00:13:48;102150.94;;;16.42;71.97
46534;BME280;32260;52.008;4.752;2023-05-08T00:16:14;102149.97;;;16.46;71.87
46534;BME280;32260;52.008;4.752;2023-05-08T00:18:41;102157.91;;;16.49;71.64
46534;BME280;32260;52.008;4.752;2023-05-08T00:21:07;102157.78;;;16.56;71.77
46534;BME280;32260;52.008;4.752;2023-05-08T00:23:33;102157.63;;;16.62;72.22
46534;BME280;32260;52.008;4.752;2023-05-08T00:25:59;102156.50;;;16.71;72.40
46534;BME280;32260;52.008;4.752;2023-05-08T00:28:25;102152.72;;;16.79;72.48
46534;BME280;32260;52.008;4.752;2023-05-08T00:30:52;102151.63;;;16.88;72.51
46534;BME280;32260;52.008;4.752;2023-05-08T00:33:18;102142.59;;;16.94;72.62
46534;BME280;32260;52.008;4.752;2023-05-08T00:35:44;102138.91;;;16.98;72.53
46534;BME280;32260;52.008;4.752;2023-05-08T00:38:10;102149.56;;;17.01;72.60
46534;BME280;32260;52.008;4.752;2023-05-08T00:40:37;102151.22;;;17.05;72.52
46534;BME280;32260;52.008;4.752;2023-05-08T00:43:03;102147.53;;;17.09;72.49
46534;BME280;32260;52.008;4.752;2023-05-08T00:45:35;102149.19;;;17.15;72.57
46534;BME280;32260;52.008;4.752;2023-05-08T00:48:01;102147.31;;;17.19;72.46
46534;BME280;32260;52.008;4.752;2023-05-08T00:50:29;102149.94;;;17.20;72.55
46534;BME280;32260;52.008;4.752;2023-05-08T00:52:57;102142.69;;;17.24;72.51
46534;BME280;32260;52.008;4.752;2023-05-08T00:55:25;102144.41;;;17.26;72.44
46534;BME280;32260;52.008;4.752;2023-05-08T00:57:51;102144.31;;;17.29;72.59
46534;BME280;32260;52.008;4.752;2023-05-08T01:00:18;102138.03;;;17.32;72.75
46534;BME280;32260;52.008;4.752;2023-05-08T01:02:45;102146.81;;;17.36;72.66
46534;BME280;32260;52.008;4.752;2023-05-08T01:05:11;102148.53;;;17.38;72.58
46534;BME280;32260;52.008;4.752;2023-05-08T01:07:38;102138.66;;;17.40;72.30
46534;BME280;32260;52.008;4.752;2023-05-08T01:10:05;102147.59;;;17.41;72.33
46534;BME280;32260;52.008;4.752;2023-05-08T01:13:56;102151.81;;;17.50;72.45
46534;BME280;32260;52.008;4.752;2023-05-08T01:15:40;102151.03;;;17.46;72.31
46534;BME280;32260;52.008;4.752;2023-05-08T01:21:55;102145.03;;;17.36;72.19
46534;BME280;32260;52.008;4.752;2023-05-08T01:27:16;102136.41;;;17.25;71.84
46534;BME280;32260;52.008;4.752;2023-05-08T01:29:50;102136.53;;;17.20;72.19
46534;BME280;32260;52.008;4.752;2023-05-08T01:35:20;102139.44;;;17.12;72.36
46534;BME280;32260;52.008;4.752;2023-05-08T01:43:41;102146.78;;;17.04;72.28
46534;BME280;32260;52.008;4.752;2023-05-08T01:46:13;102155.78;;;17.02;72.32
46534;BME280;32260;52.008;4.752;2023-05-08T01:49:47;102154.81;;;17.04;72.53
46534;BME280;32260;52.008;4.752;2023-05-08T01:51:39;102153.91;;;17.05;72.56
46534;BME280;32260;52.008;4.752;2023-05-08T01:54:08;102160.09;;;17.07;72.46
46534;BME280;32260;52.008;4.752;2023-05-08T01:56:36;102155.63;;;17.08;72.43
46534;BME280;32260;52.008;4.752;2023-05-08T01:59:09;102149.28;;;17.10;72.53
46534;BME280;32260;52.008;4.752;2023-05-08T02:01:39;102156.41;;;17.11;72.54
46534;BME280;32260;52.008;4.752;2023-05-08T02:04:07;102160.91;;;17.11;72.57
46534;BME280;32260;52.008;4.752;2023-05-08T02:06:34;102152.06;;;17.07;72.43
46534;BME280;32260;52.008;4.752;2023-05-08T02:09:02;102159.31;;;17.04;72.45
46534;BME280;32260;52.008;4.752;2023-05-08T02:11:29;102161.22;;;16.98;72.16
46534;BME280;32260;52.008;4.752;2023-05-08T02:13:57;102159.53;;;16.94;72.41
46534;BME280;32260;52.008;4.752;2023-05-08T02:16:26;102164.97;;;16.91;72.33
46534;BME280;32260;52.008;4.752;2023-05-08T02:18:54;102160.59;;;16.86;72.52
46534;BME280;32260;52.008;4.752;2023-05-08T02:21:22;102167.81;;;16.84;72.24
46534;BME280;32260;52.008;4.752;2023-05-08T02:23:51;102164.28;;;16.81;72.18
46534;BME280;32260;52.008;4.752;2023-05-08T02:26:19;102161.59;;;16.81;72.27
46534;BME280;32260;52.008;4.752;2023-05-08T02:28:48;102173.16;;;16.84;72.47
46534;BME280;32260;52.008;4.752;2023-05-08T02:31:15;102163.28;;;16.86;72.39
46534;BME280;32260;52.008;4.752;2023-05-08T02:33:43;102164.13;;;16.88;72.74
46534;BME280;32260;52.008;4.752;2023-05-08T02:36:12;102172.94;;;16.93;72.52
46534;BME280;32260;52.008;4.752;2023-05-08T02:38:40;102177.34;;;16.95;72.72
46534;BME280;32260;52.008;4.752;2023-05-08T02:41:09;102187.06;;;17.00;72.48
46534;BME280;32260;52.008;4.752;2023-05-08T02:43:36;102182.50;;;17.03;72.49
46534;BME280;32260;52.008;4.752;2023-05-08T02:46:25;102184.03;;;17.13;72.46
46534;BME280;32260;52.008;4.752;2023-05-08T02:49:00;102174.25;;;17.12;72.49
46534;BME280;32260;52.008;4.752;2023-05-08T02:54:10;102167.13;;;17.11;72.36
46534;BME280;32260;52.008;4.752;2023-05-08T02:56:44;102168.88;;;17.12;72.54
46534;BME280;32260;52.008;4.752;2023-05-08T02:59:18;102169.84;;;17.10;72.30
46534;BME280;32260;52.008;4.752;2023-05-08T03:04:33;102159.13;;;17.10;72.31
46534;BME280;32260;52.008;4.752;2023-05-08T03:07:02;102152.97;;;17.06;72.35
46534;BME280;32260;52.008;4.752;2023-05-08T03:09:36;102156.47;;;17.08;72.25
46534;BME280;32260;52.008;4.752;2023-05-08T03:12:08;102157.44;;;17.06;72.53
46534;BME280;32260;52.008;4.752;2023-05-08T03:14:43;102154.81;;;17.04;72.36
46534;BME280;32260;52.008;4.752;2023-05-08T03:17:13;102150.47;;;17.00;72.22
46534;BME280;32260;52.008;4.752;2023-05-08T03:19:41;102149.63;;;16.98;72.41
46534;BME280;32260;52.008;4.752;2023-05-08T03:22:10;102147.84;;;16.97;72.40
46534;BME280;32260;52.008;4.752;2023-05-08T03:24:40;102155.00;;;16.96;72.52
46534;BME280;32260;52.008;4.752;2023-05-08T03:27:08;102145.28;;;16.94;72.19
46534;BME280;32260;52.008;4.752;2023-05-08T03:29:36;102151.53;;;16.93;72.51
46534;BME280;32260;52.008;4.752;2023-05-08T03:32:03;102153.34;;;16.91;72.26
46534;BME280;32260;52.008;4.752;2023-05-08T03:34:30;102148.06;;;16.88;72.49
46534;BME280;32260;52.008;4.752;2023-05-08T03:36:57;102147.25;;;16.84;72.40
46534;BME280;32260;52.008;4.752;2023-05-08T03:39:24;102150.84;;;16.83;72.43
46534;BME280;32260;52.008;4.752;2023-05-08T03:41:52;102150.91;;;16.81;72.67
46534;BME280;32260;52.008;4.752;2023-05-08T03:44:20;102146.47;;;16.80;72.48
46534;BME280;32260;52.008;4.752;2023-05-08T03:46:47;102153.72;;;16.75;72.42
46534;BME280;32260;52.008;4.752;2023-05-08T03:49:16;102155.69;;;16.67;72.21
46534;BME280;32260;52.008;4.752;2023-05-08T03:51:44;102151.34;;;16.63;72.42
46534;BME280;32260;52.008;4.752;2023-05-08T03:54:10;102148.84;;;16.57;72.56
46534;BME280;32260;52.008;4.752;2023-05-08T03:56:36;102154.28;;;16.54;72.33
46534;BME280;32260;52.008;4.752;2023-05-08T03:59:13;102150.75;;;16.52;72.36
46534;BME280;32260;52.008;4.752;2023-05-08T04:01:53;102156.16;;;16.48;72.57
46534;BME280;32260;52.008;4.752;2023-05-08T04:04:43;102153.47;;;16.48;72.54
46534;BME280;32260;52.008;4.752;2023-05-08T04:07:18;102158.00;;;16.46;72.48
46534;BME280;32260;52.008;4.752;2023-05-08T04:12:42;102148.22;;;16.45;72.83
46534;BME280;32260;52.008;4.752;2023-05-08T04:15:16;102145.59;;;16.44;72.67
46534;BME280;32260;52.008;4.752;2023-05-08T04:17:49;102146.44;;;16.44;72.62
46534;BME280;32260;52.008;4.752;2023-05-08T04:20:19;102148.31;;;16.41;72.62
46534;BME280;32260;52.008;4.752;2023-05-08T04:22:48;102154.63;;;16.38;72.35
46534;BME280;32260;52.008;4.752;2023-05-08T04:25:17;102160.06;;;16.35;72.30
46534;BME280;32260;52.008;4.752;2023-05-08T04:27:44;102153.88;;;16.31;72.53
46534;BME280;32260;52.008;4.752;2023-05-08T04:30:11;102153.00;;;16.31;72.46
46534;BME280;32260;52.008;4.752;2023-05-08T04:32:38;102159.25;;;16.31;72.87
46534;BME280;32260;52.008;4.752;2023-05-08T04:35:04;102168.13;;;16.32;72.52
46534;BME280;32260;52.008;4.752;2023-05-08T04:37:31;102167.13;;;16.36;72.95
46534;BME280;32260;52.008;4.752;2023-05-08T04:39:58;102177.84;;;16.36;72.73
46534;BME280;32260;52.008;4.752;2023-05-08T04:42:25;102177.88;;;16.34;72.34
46534;BME280;32260;52.008;4.752;2023-05-08T04:44:52;102174.38;;;16.32;72.25
46534;BME280;32260;52.008;4.752;2023-05-08T04:47:18;102185.16;;;16.28;72.53
46534;BME280;32260;52.008;4.752;2023-05-08T04:49:45;102178.06;;;16.27;72.34
46534;BME280;32260;52.008;4.752;2023-05-08T04:52:11;102178.06;;;16.27;72.47
46534;BME280;32260;52.008;4.752;2023-05-08T04:54:37;102175.34;;;16.28;72.35
46534;BME280;32260;52.008;4.752;2023-05-08T04:57:03;102182.47;;;16.29;72.71
46534;BME280;32260;52.008;4.752;2023-05-08T04:59:29;102181.59;;;16.29;72.49
46534;BME280;32260;52.008;4.752;2023-05-08T05:01:56;102186.03;;;16.30;72.68
46534;BME280;32260;52.008;4.752;2023-05-08T05:04:22;102189.63;;;16.29;72.48
46534;BME280;32260;52.008;4.752;2023-05-08T05:06:48;102194.97;;;16.27;72.67
46534;BME280;32260;52.008;4.752;2023-05-08T05:09:14;102192.34;;;16.26;72.27
46534;BME280;32260;52.008;4.752;2023-05-08T05:11:41;102192.34;;;16.26;72.69
46534;BME280;32260;52.008;4.752;2023-05-08T05:14:07;102196.81;;;16.25;72.41
46534;BME280;32260;52.008;4.752;2023-05-08T05:16:33;102203.94;;;16.26;72.62
46534;BME280;32260;52.008;4.752;2023-05-08T05:18:59;102195.00;;;16.26;72.58
46534;BME280;32260;52.008;4.752;2023-05-08T05:21:25;102205.66;;;16.27;72.53
46534;BME280;32260;52.008;4.752;2023-05-08T05:23:52;102208.28;;;16.30;72.63
46534;BME280;32260;52.008;4.752;2023-05-08T05:26:19;102197.56;;;16.32;72.75
46534;BME280;32260;52.008;4.752;2023-05-08T05:28:46;102213.53;;;16.35;72.72
46534;BME280;32260;52.008;4.752;2023-05-08T05:31:13;102202.84;;;16.35;72.75
46534;BME280;32260;52.008;4.752;2023-05-08T05:33:39;102206.34;;;16.37;72.47
46534;BME280;32260;52.008;4.752;2023-05-08T05:36:05;102209.88;;;16.39;72.51
46534;BME280;32260;52.008;4.752;2023-05-08T05:38:32;102208.97;;;16.40;72.68
46534;BME280;32260;52.008;4.752;2023-05-08T05:40:58;102222.25;;;16.43;72.72
46534;BME280;32260;52.008;4.752;2023-05-08T05:43:24;102222.22;;;16.46;72.43
46534;BME280;32260;52.008;4.752;2023-05-08T05:45:50;102225.72;;;16.48;72.66
46534;BME280;32260;52.008;4.752;2023-05-08T05:48:16;102227.47;;;16.51;72.34
46534;BME280;32260;52.008;4.752;2023-05-08T05:50:42;102223.03;;;16.50;72.28
46534;BME280;32260;52.008;4.752;2023-05-08T05:53:09;102234.59;;;16.50;72.45
46534;BME280;32260;52.008;4.752;2023-05-08T05:55:35;102234.59;;;16.50;72.51
46534;BME280;32260;52.008;4.752;2023-05-08T05:58:01;102240.88;;;16.48;72.00
46534;BME280;32260;52.008;4.752;2023-05-08T06:00:27;102240.84;;;16.49;72.32
46534;BME280;32260;52.008;4.752;2023-05-08T06:02:53;102245.25;;;16.52;72.53
46534;BME280;32260;52.008;4.752;2023-05-08T06:05:19;102250.59;;;16.54;72.08
46534;BME280;32260;52.008;4.752;2023-05-08T06:07:45;102249.72;;;16.52;72.20
46534;BME280;32260;52.008;4.752;2023-05-08T06:10:11;102254.22;;;16.49;72.02
46534;BME280;32260;52.008;4.752;2023-05-08T06:12:38;102254.31;;;16.46;71.78
46534;BME280;32260;52.008;4.752;2023-05-08T06:15:04;102256.22;;;16.41;72.13
46534;BME280;32260;52.008;4.752;2023-05-08T06:17:30;102264.31;;;16.37;72.07
46534;BME280;32260;52.008;4.752;2023-05-08T06:19:56;102250.09;;;16.34;71.90
46534;BME280;32260;52.008;4.752;2023-05-08T06:22:23;102253.69;;;16.33;72.23
46534;BME280;32260;52.008;4.752;2023-05-08T06:24:51;102251.00;;;16.35;72.01
46534;BME280;32260;52.008;4.752;2023-05-08T06:27:19;102258.06;;;16.38;72.03
46534;BME280;32260;52.008;4.752;2023-05-08T06:29:47;102256.22;;;16.41;72.09
46534;BME280;32260;52.008;4.752;2023-05-08T06:32:13;102250.72;;;16.47;72.13
46534;BME280;32260;52.008;4.752;2023-05-08T06:34:39;102253.34;;;16.49;72.14
46534;BME280;32260;52.008;4.752;2023-05-08T06:37:05;102252.31;;;16.55;72.18
46534;BME280;32260;52.008;4.752;2023-05-08T06:39:31;102246.84;;;16.61;72.26
46534;BME280;32260;52.008;4.752;2023-05-08T06:41:57;102246.63;;;16.70;71.93
46534;BME280;32260;52.008;4.752;2023-05-08T06:44:23;102250.94;;;16.77;72.14
46534;BME280;32260;52.008;4.752;2023-05-08T06:46:49;102247.97;;;16.90;72.20
46534;BME280;32260;52.008;4.752;2023-05-08T06:49:15;102244.19;;;17.00;71.95
46534;BME280;32260;52.008;4.752;2023-05-08T06:51:41;102240.34;;;17.10;71.68
46534;BME280;32260;52.008;4.752;2023-05-08T06:54:07;102244.53;;;17.21;71.89
46534;BME280;32260;52.008;4.752;2023-05-08T06:56:34;102246.16;;;17.28;71.96
46534;BME280;32260;52.008;4.752;2023-05-08T06:59:00;102242.50;;;17.30;71.53
46534;BME280;32260;52.008;4.752;2023-05-08T07:01:27;102245.19;;;17.30;71.28
46534;BME280;32260;52.008;4.752;2023-05-08T07:03:53;102239.81;;;17.32;71.04
46534;BME280;32260;52.008;4.752;2023-05-08T07:06:19;102249.50;;;17.36;70.78
46534;BME280;32260;52.008;4.752;2023-05-08T07:08:45;102247.53;;;17.43;71.12
46534;BME280;32260;52.008;4.752;2023-05-08T07:11:11;102252.53;;;17.57;70.91
46534;BME280;32260;52.008;4.752;2023-05-08T07:13:37;102244.09;;;17.72;71.04
46534;BME280;32260;52.008;4.752;2023-05-08T07:16:08;102238.34;;;17.86;70.69
46534;BME280;32260;52.008;4.752;2023-05-08T07:18:35;102234.56;;;17.93;70.40
46534;BME280;32260;52.008;4.752;2023-05-08T07:21:01;102233.41;;;18.04;70.32
46534;BME280;32260;52.008;4.752;2023-05-08T07:23:28;102233.22;;;18.10;70.06
46534;BME280;32260;52.008;4.752;2023-05-08T07:25:54;102228.72;;;18.10;69.51
46534;BME280;32260;52.008;4.752;2023-05-08T07:28:21;102235.91;;;18.10;69.33
46534;BME280;32260;52.008;4.752;2023-05-08T07:30:47;102234.09;;;18.10;69.26
46534;BME280;32260;52.008;4.752;2023-05-08T07:33:13;102232.25;;;18.13;69.56
46534;BME280;32260;52.008;4.752;2023-05-08T07:35:39;102219.69;;;18.15;69.42
46534;BME280;32260;52.008;4.752;2023-05-08T07:38:06;102221.38;;;18.17;68.70
46534;BME280;32260;52.008;4.752;2023-05-08T07:40:32;102221.25;;;18.22;68.88
46534;BME280;32260;52.008;4.752;2023-05-08T07:42:58;102215.78;;;18.25;68.89
46534;BME280;32260;52.008;4.752;2023-05-08T07:45:25;102221.06;;;18.28;68.96
46534;BME280;32260;52.008;4.752;2023-05-08T07:47:52;102225.47;;;18.31;68.81
46534;BME280;32260;52.008;4.752;2023-05-08T07:50:20;102217.25;;;18.35;69.09
46534;BME280;32260;52.008;4.752;2023-05-08T07:52:47;102220.66;;;18.40;69.11
46534;BME280;32260;52.008;4.752;2023-05-08T07:55:13;102224.97;;;18.46;68.72
46534;BME280;32260;52.008;4.752;2023-05-08T07:57:41;102223.81;;;18.55;69.01
46534;BME280;32260;52.008;4.752;2023-05-08T08:00:09;102234.34;;;18.61;68.73
46534;BME280;32260;52.008;4.752;2023-05-08T08:02:36;102229.81;;;18.63;68.31
46534;BME280;32260;52.008;4.752;2023-05-08T08:05:04;102232.59;;;18.60;68.26
46534;BME280;32260;52.008;4.752;2023-05-08T08:07:31;102233.50;;;18.59;68.74
46534;BME280;32260;52.008;4.752;2023-05-08T08:09:58;102235.22;;;18.62;69.04
46534;BME280;32260;52.008;4.752;2023-05-08T08:12:25;102237.75;;;18.66;68.77
46534;BME280;32260;52.008;4.752;2023-05-08T08:14:51;102236.53;;;18.76;68.66
46534;BME280;32260;52.008;4.752;2023-05-08T08:17:18;102239.63;;;18.92;69.13
46534;BME280;32260;52.008;4.752;2023-05-08T08:19:44;102237.59;;;19.01;68.71
46534;BME280;32260;52.008;4.752;2023-05-08T08:22:10;102242.69;;;19.08;68.42
46534;BME280;32260;52.008;4.752;2023-05-08T08:24:36;102237.97;;;19.17;68.10
46534;BME280;32260;52.008;4.752;2023-05-08T08:27:02;102244.75;;;19.27;67.90
46534;BME280;32260;52.008;4.752;2023-05-08T08:29:29;102245.31;;;19.37;67.83
46534;BME280;32260;52.008;4.752;2023-05-08T08:31:55;102236.91;;;19.48;67.54
46534;BME280;32260;52.008;4.752;2023-05-08T08:34:21;102234.03;;;19.52;67.21
46534;BME280;32260;52.008;4.752;2023-05-08T08:36:48;102235.69;;;19.56;66.87
46534;BME280;32260;52.008;4.752;2023-05-08T08:39:14;102228.28;;;19.63;67.68
46534;BME280;32260;52.008;4.752;2023-05-08T08:41:40;102230.97;;;19.63;67.51
46534;BME280;32260;52.008;4.752;2023-05-08T08:44:06;102229.19;;;19.62;66.93
46534;BME280;32260;52.008;4.752;2023-05-08T08:46:33;102230.75;;;19.69;66.60
46534;BME280;32260;52.008;4.752;2023-05-08T08:49:03;102229.44;;;19.81;67.17
46534;BME280;32260;52.008;4.752;2023-05-08T08:51:42;102238.09;;;19.90;66.71
46534;BME280;32260;52.008;4.752;2023-05-08T08:54:12;102233.25;;;19.99;66.75
46534;BME280;32260;52.008;4.752;2023-05-08T08:56:40;102226.66;;;20.08;67.10
46534;BME280;32260;52.008;4.752;2023-05-08T08:59:08;102222.03;;;20.12;66.20
46534;BME280;32260;52.008;4.752;2023-05-08T09:01:38;102217.28;;;20.18;66.75
46534;BME280;32260;52.008;4.752;2023-05-08T09:04:05;102225.19;;;20.23;66.07
46534;BME280;32260;52.008;4.752;2023-05-08T09:06:35;102223.94;;;20.32;66.20
46534;BME280;32260;52.008;4.752;2023-05-08T09:09:03;102220.94;;;20.40;65.58
46534;BME280;32260;52.008;4.752;2023-05-08T09:11:32;102218.59;;;20.54;66.52
46534;BME280;32260;52.008;4.752;2023-05-08T09:13:59;102213.81;;;20.61;65.78
46534;BME280;32260;52.008;4.752;2023-05-08T09:16:25;102218.84;;;20.70;65.61
46534;BME280;32260;52.008;4.752;2023-05-08T09:18:52;102217.63;;;20.79;65.38
46534;BME280;32260;52.008;4.752;2023-05-08T09:21:19;102221.75;;;20.88;64.93
46534;BME280;32260;52.008;4.752;2023-05-08T09:24:03;102215.63;;;21.05;65.21
46534;BME280;32260;52.008;4.752;2023-05-08T09:26:32;102216.34;;;21.10;65.53
46534;BME280;32260;52.008;4.752;2023-05-08T09:31:52;102217.56;;;21.23;64.10
46534;BME280;32260;52.008;4.752;2023-05-08T09:34:25;102221.88;;;21.27;64.96
46534;BME280;32260;52.008;4.752;2023-05-08T09:36:54;102207.84;;;21.19;63.98
46534;BME280;32260;52.008;4.752;2023-05-08T09:39:24;102215.88;;;21.21;64.28
46534;BME280;32260;52.008;4.752;2023-05-08T09:42:05;102218.28;;;21.27;63.62
46534;BME280;32260;52.008;4.752;2023-05-08T09:47:23;102224.03;;;21.19;64.29
46534;BME280;32260;52.008;4.752;2023-05-08T09:50:07;102225.63;;;21.23;63.70
46534;BME280;32260;52.008;4.752;2023-05-08T09:52:34;102227.88;;;21.13;62.96
46534;BME280;32260;52.008;4.752;2023-05-08T09:55:04;102218.06;;;21.11;63.39
46534;BME280;32260;52.008;4.752;2023-05-08T09:57:32;102218.06;;;21.11;63.72
46534;BME280;32260;52.008;4.752;2023-05-08T10:02:54;102217.97;;;21.55;63.42
46534;BME280;32260;52.008;4.752;2023-05-08T10:05:29;102216.31;;;21.73;62.65
46534;BME280;32260;52.008;4.752;2023-05-08T10:07:57;102214.28;;;21.78;62.88
46534;BME280;32260;52.008;4.752;2023-05-08T10:10:26;102223.16;;;21.80;62.14
46534;BME280;32260;52.008;4.752;2023-05-08T10:12:54;102211.63;;;21.77;61.93
46534;BME280;32260;52.008;4.752;2023-05-08T10:15:23;102216.34;;;21.72;62.39
46534;BME280;32260;52.008;4.752;2023-05-08T10:17:59;102209.47;;;21.64;61.79
46534;BME280;32260;52.008;4.752;2023-05-08T10:20:29;102210.56;;;21.60;62.39
46534;BME280;32260;52.008;4.752;2023-05-08T10:22:57;102209.78;;;21.58;61.82
46534;BME280;32260;52.008;4.752;2023-05-08T10:25:24;102216.22;;;21.54;61.48
46534;BME280;32260;52.008;4.752;2023-05-08T10:28:12;102219.22;;;21.69;61.89
46534;BME280;32260;52.008;4.752;2023-05-08T10:30:46;102220.81;;;21.73;61.82
46534;BME280;32260;52.008;4.752;2023-05-08T10:33:13;102219.69;;;21.97;61.60
46534;BME280;32260;52.008;4.752;2023-05-08T10:35:40;102215.13;;;22.00;61.73
46534;BME280;32260;52.008;4.752;2023-05-08T10:38:08;102215.31;;;22.14;61.19
46534;BME280;32260;52.008;4.752;2023-05-08T10:40:35;102220.31;;;22.23;60.55
46534;BME280;32260;52.008;4.752;2023-05-08T10:43:04;102213.59;;;22.32;60.65
46534;BME280;32260;52.008;4.752;2023-05-08T10:45:32;102219.50;;;22.40;60.47
46534;BME280;32260;52.008;4.752;2023-05-08T10:48:10;102218.44;;;22.44;59.72
46534;BME280;32260;52.008;4.752;2023-05-08T10:50:55;102213.69;;;22.50;59.48
46534;BME280;32260;52.008;4.752;2023-05-08T10:56:09;102219.22;;;22.46;59.07
46534;BME280;32260;52.008;4.752;2023-05-08T10:58:36;102216.22;;;22.53;60.35
46534;BME280;32260;52.008;4.752;2023-05-08T11:01:11;102209.47;;;22.61;60.07
46534;BME280;32260;52.008;4.752;2023-05-08T11:03:39;102208.00;;;22.73;60.19
46534;BME280;32260;52.008;4.752;2023-05-08T11:06:08;102205.47;;;22.88;59.86
46534;BME280;32260;52.008;4.752;2023-05-08T11:08:46;102206.53;;;23.03;59.00
46534;BME280;32260;52.008;4.752;2023-05-08T11:11:26;102201.47;;;23.14;58.11
46534;BME280;32260;52.008;4.752;2023-05-08T11:13:57;102197.75;;;23.17;57.88
46534;BME280;32260;52.008;4.752;2023-05-08T11:19:37;102198.91;;;23.11;57.24
46534;BME280;32260;52.008;4.752;2023-05-08T11:25:03;102199.06;;;23.08;57.59
46534;BME280;32260;52.008;4.752;2023-05-08T11:30:33;102200.19;;;23.21;57.84
46534;BME280;32260;52.008;4.752;2023-05-08T11:41:32;102186.81;;;23.53;56.54
46534;BME280;32260;52.008;4.752;2023-05-08T11:46:48;102186.59;;;23.40;55.02
46534;BME280;32260;52.008;4.752;2023-05-08T11:49:20;102183.81;;;23.42;56.38
46534;BME280;32260;52.008;4.752;2023-05-08T11:51:49;102180.16;;;23.43;56.09
46534;BME280;32260;52.008;4.752;2023-05-08T11:54:21;102179.44;;;23.39;55.69
46534;BME280;32260;52.008;4.752;2023-05-08T11:56:48;102181.66;;;23.31;55.49
46534;BME280;32260;52.008;4.752;2023-05-08T11:59:15;102178.94;;;23.14;54.75
46534;BME280;32260;52.008;4.752;2023-05-08T12:01:41;102176.88;;;23.01;54.63
46534;BME280;32260;52.008;4.752;2023-05-08T12:04:10;102164.41;;;22.99;54.97
46534;BME280;32260;52.008;4.752;2023-05-08T12:06:39;102170.91;;;23.12;55.24
46534;BME280;32260;52.008;4.752;2023-05-08T12:09:14;102160.44;;;23.41;54.92
46534;BME280;32260;52.008;4.752;2023-05-08T12:11:42;102172.34;;;23.54;54.53
46534;BME280;32260;52.008;4.752;2023-05-08T12:14:10;102170.16;;;23.61;54.05
46534;BME280;32260;52.008;4.752;2023-05-08T12:16:38;102160.28;;;23.60;53.80
46534;BME280;32260;52.008;4.752;2023-05-08T12:19:09;102162.59;;;23.68;53.85
46534;BME280;32260;52.008;4.752;2023-05-08T12:21:35;102164.31;;;23.69;53.95
46534;BME280;32260;52.008;4.752;2023-05-08T12:24:05;102158.59;;;23.75;52.77
46534;BME280;32260;52.008;4.752;2023-05-08T12:26:36;102156.81;;;23.92;53.38
46534;BME280;32260;52.008;4.752;2023-05-08T12:29:05;102149.41;;;24.11;51.97
46534;BME280;32260;52.008;4.752;2023-05-08T12:31:34;102149.59;;;24.24;52.11
46534;BME280;32260;52.008;4.752;2023-05-08T12:34:01;102143.47;;;24.20;52.11
46534;BME280;32260;52.008;4.752;2023-05-08T12:36:28;102145.94;;;24.09;52.48
46534;BME280;32260;52.008;4.752;2023-05-08T12:39:09;102144.66;;;23.99;52.47
46534;BME280;32260;52.008;4.752;2023-05-08T12:41:41;102150.28;;;23.96;52.87
46534;BME280;32260;52.008;4.752;2023-05-08T12:46:56;102139.28;;;24.15;52.66
46534;BME280;32260;52.008;4.752;2023-05-08T12:49:35;102137.50;;;24.30;51.76
46534;BME280;32260;52.008;4.752;2023-05-08T12:52:05;102131.94;;;24.33;52.27
46534;BME280;32260;52.008;4.752;2023-05-08T12:54:34;102134.75;;;24.31;49.67
46534;BME280;32260;52.008;4.752;2023-05-08T12:57:00;102138.47;;;24.29;50.71
46534;BME280;32260;52.008;4.752;2023-05-08T12:59:31;102139.81;;;24.21;50.55
46534;BME280;32260;52.008;4.752;2023-05-08T13:01:58;102127.38;;;24.17;49.96
46534;BME280;32260;52.008;4.752;2023-05-08T13:04:24;102130.72;;;24.22;51.60
46534;BME280;32260;52.008;4.752;2023-05-08T13:06:57;102130.00;;;24.35;50.79
46534;BME280;32260;52.008;4.752;2023-05-08T13:09:23;102126.25;;;24.37;51.35
46534;BME280;32260;52.008;4.752;2023-05-08T13:11:49;102138.91;;;24.37;51.15
46534;BME280;32260;52.008;4.752;2023-05-08T13:14:18;102127.03;;;24.39;50.85
46534;BME280;32260;52.008;4.752;2023-05-08T13:16:45;102136.19;;;24.37;51.08
46534;BME280;32260;52.008;4.752;2023-05-08T13:19:14;102122.16;;;24.30;51.19
46534;BME280;32260;52.008;4.752;2023-05-08T13:21:41;102110.78;;;24.23;50.27
46534;BME280;32260;52.008;4.752;2023-05-08T13:24:09;102113.59;;;24.22;50.71
46534;BME280;32260;52.008;4.752;2023-05-08T13:26:35;102112.38;;;24.28;50.70
46534;BME280;32260;52.008;4.752;2023-05-08T13:29:01;102116.75;;;24.30;50.65
46534;BME280;32260;52.008;4.752;2023-05-08T13:31:27;102118.19;;;24.36;50.02
46534;BME280;32260;52.008;4.752;2023-05-08T13:33:53;102113.03;;;24.47;50.84
46534;BME280;32260;52.008;4.752;2023-05-08T13:36:19;102109.59;;;24.60;50.50
46534;BME280;32260;52.008;4.752;2023-05-08T13:38:45;102114.25;;;24.74;50.35
46534;BME280;32260;52.008;4.752;2023-05-08T13:41:13;102106.50;;;24.82;48.78
46534;BME280;32260;52.008;4.752;2023-05-08T13:43:39;102105.97;;;24.91;49.62
46534;BME280;32260;52.008;4.752;2023-05-08T13:46:06;102116.91;;;25.04;49.48
46534;BME280;32260;52.008;4.752;2023-05-08T13:48:32;102114.00;;;25.07;48.75
46534;BME280;32260;52.008;4.752;2023-05-08T13:50:58;102115.38;;;25.00;49.14
46534;BME280;32260;52.008;4.752;2023-05-08T13:53:24;102108.94;;;24.86;49.44
46534;BME280;32260;52.008;4.752;2023-05-08T13:55:50;102115.09;;;24.74;48.75